Time;durP1;ratioP1;P1;durP2;ratioP2;P2;SDS_P1;SDS_P2;PMS_P1;PMS_P2;Temp;Humidity;BMP_temperature;BMP_pressure;BME280_temperature;BME280_humidity;BME280_pressure;Samples;Min_cycle;Max_cycle;Signal;HPM_P1;HPM_P2
2023/01/13 00:00:00;;;;;;;0.43;0.10;;;;;;;;;;5048213;28;20042;-76
2023/01/13 00:02:26;;;;;;;0.23;0.10;;;;;;;;;;5034723;28;20096;-76
2023/01/13 00:04:52;;;;;;;0.83;0.10;;;;;;;;;;5030452;28;20029;-75
2023/01/13 00:07:18;;;;;;;0.30;0.10;;;;;;;;;;5032438;28;20300;-76
2023/01/13 00:09:44;;;;;;;0.37;0.20;;;;;;;;;;5031135;28;20035;-77
2023/01/13 00:12:10;;;;;;;0.37;0.10;;;;;;;;;;5031836;28;20026;-75
2023/01/13 00:14:36;;;;;;;1.00;0.10;;;;;;;;;;5041845;28;20037;-75
2023/01/13 00:17:03;;;;;;;0.23;0.10;;;;;;;;;;5047604;28;20029;-76
2023/01/13 00:19:29;;;;;;;0.40;0.20;;;;;;;;;;5040405;28;20075;-75
2023/01/13 00:21:55;;;;;;;1.40;0.30;;;;;;;;;;5030300;28;20072;-75
2023/01/13 00:24:21;;;;;;;1.93;0.30;;;;;;;;;;5024824;28;20026;-76
2023/01/13 00:26:47;;;;;;;0.87;0.10;;;;;;;;;;5026256;28;20041;-75
2023/01/13 00:29:13;;;;;;;0.20;0.10;;;;;;;;;;5049174;28;20116;-76
2023/01/13 00:31:39;;;;;;;1.20;0.20;;;;;;;;;;5032258;28;20117;-76
2023/01/13 00:34:05;;;;;;;1.70;0.20;;;;;;;;;;5031905;28;20044;-76
2023/01/13 00:36:31;;;;;;;1.00;0.10;;;;;;;;;;5025461;28;20033;-76
2023/01/13 00:38:57;;;;;;;0.80;0.20;;;;;;;;;;5031404;28;20167;-76
2023/01/13 00:41:24;;;;;;;0.37;0.20;;;;;;;;;;5046722;28;20033;-76
2023/01/13 00:43:50;;;;;;;1.40;0.30;;;;;;;;;;5048982;28;20037;-75
2023/01/13 00:46:17;;;;;;;0.60;0.23;;;;;;;;;;5042669;28;20044;-75
2023/01/13 00:48:46;;;;;;;1.60;0.20;;;;;;;;;;5029716;28;20029;-76
2023/01/13 00:51:12;;;;;;;0.40;0.23;;;;;;;;;;5030190;28;20060;-75
2023/01/13 00:53:39;;;;;;;1.23;0.50;;;;;;;;;;5031299;28;20872;-75
2023/01/13 00:56:13;;;;;;;2.03;0.20;;;;;;;;;;5031090;28;20112;-76
2023/01/13 00:58:39;;;;;;;1.37;0.30;;;;;;;;;;5025094;28;20064;-76
2023/01/13 01:01:07;;;;;;;0.67;0.20;;;;;;;;;;5023453;28;20052;-76
2023/01/13 01:03:33;;;;;;;1.03;0.23;;;;;;;;;;5041677;28;20049;-75
2023/01/13 01:06:04;;;;;;;1.27;0.40;;;;;;;;;;5040230;28;20409;-76
2023/01/13 01:08:30;;;;;;;0.40;0.20;;;;;;;;;;5045962;28;20036;-76
2023/01/13 01:11:07;;;;;;;1.37;0.40;;;;;;;;;;5027554;28;20021;-75
2023/01/13 01:13:35;;;;;;;2.33;0.30;;;;;;;;;;5026695;28;20435;-75
2023/01/13 01:16:06;;;;;;;1.60;0.40;;;;;;;;;;5041461;28;20047;-76
2023/01/13 01:18:37;;;;;;;3.30;0.30;;;;;;;;;;5039846;28;20044;-75
2023/01/13 01:21:03;;;;;;;2.03;0.40;;;;;;;;;;5046505;28;20029;-75
2023/01/13 01:23:31;;;;;;;2.33;0.40;;;;;;;;;;5043151;28;20045;-76
2023/01/13 01:26:01;;;;;;;4.57;0.50;;;;;;;;;;5022624;28;20355;-75
2023/01/13 01:28:27;;;;;;;3.03;0.70;;;;;;;;;;5044805;28;20453;-74
2023/01/13 01:30:54;;;;;;;2.63;0.70;;;;;;;;;;5039513;28;20040;-74
2023/01/13 01:33:20;;;;;;;3.10;0.50;;;;;;;;;;5028199;28;20033;-74
2023/01/13 01:35:46;;;;;;;2.37;0.53;;;;;;;;;;5028203;28;20112;-74
2023/01/13 01:38:12;;;;;;;3.47;0.67;;;;;;;;;;5040316;28;20033;-75
2023/01/13 01:40:41;;;;;;;2.03;0.50;;;;;;;;;;5044878;28;20036;-76
2023/01/13 01:46:02;;;;;;;5.70;0.63;;;;;;;;;;5029894;28;20569;-75
2023/01/13 01:48:33;;;;;;;3.67;0.73;;;9.10;99.90;;;;;;5029986;28;20120;-74
2023/01/13 01:50:59;;;;;;;1.90;0.40;;;;;;;;;;5030260;28;20056;-76
2023/01/13 01:53:27;;;;;;;4.10;0.50;;;;;;;;;;5024515;28;20064;-76
2023/01/13 01:55:56;;;;;;;1.43;0.40;;;;;;;;;;5038735;28;20025;-75
2023/01/13 01:58:26;;;;;;;3.10;0.57;;;;;;;;;;5031115;28;20488;-74
2023/01/13 02:00:52;;;;;;;1.70;0.30;;;;;;;;;;5047053;28;20026;-75
2023/01/13 02:03:18;;;;;;;1.23;0.20;;;8.60;99.90;;;;;;5023746;28;20823;-75
2023/01/13 02:05:44;;;;;;;3.03;0.50;;;8.60;99.90;;;;;;5030008;28;20022;-75
2023/01/13 02:08:12;;;;;;;1.97;0.60;;;8.60;99.90;;;;;;5018340;28;20434;-75
2023/01/13 02:10:42;;;;;;;1.57;0.40;;;8.60;99.90;;;;;;5028979;28;20048;-76
2023/01/13 02:13:12;;;;;;;1.93;0.70;;;8.50;99.90;;;;;;5017965;28;20120;-75
2023/01/13 02:15:51;;;;;;;1.27;0.53;;;8.60;99.90;;;;;;5045265;28;20045;-75
2023/01/13 02:18:20;;;;;;;2.97;0.30;;;8.70;99.90;;;;;;5029818;28;20508;-75
2023/01/13 02:20:55;;;;;;;3.43;0.50;;;;;;;;;;5045535;28;20029;-75
2023/01/13 02:26:25;;;;;;;1.97;0.40;;;;;;;;;;5029721;28;20130;-74
2023/01/13 02:31:43;;;;;;;3.53;0.40;;;;;;;;;;5028649;28;21681;-76
2023/01/13 02:34:19;;;;;;;4.20;0.67;;;;;;;;;;5040077;28;20057;-75
2023/01/13 02:36:51;;;;;;;3.40;0.60;;;;;;;;;;5023550;28;20115;-74
2023/01/13 02:39:33;;;;;;;2.47;0.40;;;;;;;;;;5028772;28;20045;-76
2023/01/13 02:45:03;;;;;;;2.87;0.50;;;;;;;;;;5028477;28;20057;-75
2023/01/13 02:47:32;;;;;;;1.60;0.40;;;;;;;;;;5029720;28;20057;-76
2023/01/13 02:50:01;;;;;;;1.90;0.47;;;;;;;;;;5027708;28;20029;-75
2023/01/13 02:52:39;;;;;;;4.13;0.67;;;;;;;;;;5053103;28;20104;-76
2023/01/13 02:55:12;;;;;;;2.37;0.47;;;;;;;;;;5031828;28;20025;-75
2023/01/13 02:57:39;;;;;;;3.70;0.70;;;;;;;;;;5038255;28;20029;-76
2023/01/13 03:00:08;;;;;;;6.67;1.10;;;;;;;;;;5051035;28;20041;-76
2023/01/13 03:02:35;;;;;;;4.17;0.70;;;;;;;;;;5033592;28;20061;-75
2023/01/13 03:05:01;;;;;;;4.13;0.70;;;;;;;;;;5032212;28;20067;-75
2023/01/13 03:07:33;;;;;;;3.53;0.60;;;;;;;;;;5035400;28;20040;-76
2023/01/13 03:10:19;;;;;;;7.32;0.88;;;;;;;;;;5050827;28;20048;-74
2023/01/13 03:13:12;;;;;;;4.77;0.67;;;;;;;;;;5039392;28;20026;-76
2023/01/13 03:16:00;;;;;;;7.90;1.13;;;;;;;;;;5009291;28;20104;-75
2023/01/13 03:18:29;;;;;;;6.27;0.83;;;;;;;;;;5028988;28;20032;-75
2023/01/13 03:21:04;;;;;;;4.30;0.93;;;;;;;;;;5030915;28;20033;-76
2023/01/13 03:23:36;;;;;;;4.90;0.80;;;;;;;;;;5050880;28;20078;-76
2023/01/13 03:26:08;;;;;;;3.53;1.00;;;;;;;;;;5044774;28;20079;-75
2023/01/13 03:28:48;;;;;;;9.13;1.38;;;;;;;;;;5034277;28;20072;-76
2023/01/13 03:31:27;;;;;;;5.47;0.93;;;;;;;;;;5029434;28;20033;-74
2023/01/13 03:34:09;;;;;;;9.50;1.77;;;;;;;;;;5030170;28;20091;-76
2023/01/13 03:36:36;;;;;;;8.90;0.87;;;;;;;;;;5033660;28;20044;-75
2023/01/13 03:39:10;;;;;;;5.67;1.50;;;;;;;;;;5049786;28;20033;-75
2023/01/13 03:41:39;;;;;;;6.70;1.27;;;;;;;;;;5033639;28;20110;-75
2023/01/13 03:44:23;;;;;;;12.07;1.97;;;;;;;;;;5050125;28;20037;-75
2023/01/13 03:46:59;;;;;;;9.73;1.10;;;;;;;;;;5034703;28;20043;-77
2023/01/13 03:49:31;;;;;;;9.87;1.57;;;;;;;;;;5049510;28;20025;-76
2023/01/13 03:52:00;;;;;;;4.93;1.02;;;;;;;;;;5033866;28;20124;-75
2023/01/13 03:54:27;;;;;;;11.80;1.67;;;;;;;;;;5045424;28;20117;-75
2023/01/13 03:57:02;;;;;;;14.73;2.17;;;;;;;;;;5044319;28;20029;-76
2023/01/13 03:59:30;;;;;;;21.47;3.17;;;;;;;;;;5041721;28;20033;-76
2023/01/13 04:02:03;;;;;;;13.50;1.80;;;;;;;;;;5026779;28;20036;-75
2023/01/13 04:04:29;;;;;;;;;;;;;;;;;;5031163;28;20037;-77
2023/01/13 04:07:14;;;;;;;14.40;2.40;;;;;;;;;;5040802;28;19917;-74
2023/01/13 04:09:55;;;;;;;9.00;1.50;;;8.90;99.90;;;;;;5026821;28;20037;-74
2023/01/13 04:15:20;;;;;;;14.60;2.47;;;8.70;99.90;;;;;;5031072;28;20098;-74
2023/01/13 04:17:46;;;;;;;14.20;3.27;;;8.50;99.90;;;;;;5025893;28;20549;-76
2023/01/13 04:20:12;;;;;;;22.13;2.10;;;8.50;99.90;;;;;;5029800;28;20053;-74
2023/01/13 04:22:37;;;;;;;19.77;2.03;;;8.50;99.90;;;;;;5030876;28;20057;-75
2023/01/13 04:25:03;;;;;;;11.97;2.43;;;8.40;99.90;;;;;;5046627;28;20041;-76
2023/01/13 04:27:31;;;;;;;13.83;2.23;;;8.30;99.90;;;;;;5031109;28;20021;-75
2023/01/13 04:29:57;;;;;;;17.80;2.67;;;8.30;99.90;;;;;;5029182;28;20025;-76
2023/01/13 04:32:22;;;;;;;11.37;2.30;;;8.30;99.90;;;;;;5025222;28;20022;-76
2023/01/13 04:34:48;;;;;;;13.13;2.43;;;8.30;99.90;;;;;;5025836;28;20068;-76
2023/01/13 04:37:13;;;;;;;9.63;2.13;;;8.30;99.90;;;;;;5024179;28;20091;-75
2023/01/13 04:39:39;;;;;;;12.77;2.37;;;8.20;99.90;;;;;;5044920;28;20417;-75
2023/01/13 04:42:04;;;;;;;20.07;2.80;;;8.10;99.90;;;;;;5025305;28;20033;-76
2023/01/13 04:44:34;;;;;;;17.87;2.97;;;8.10;99.90;;;;;;5041427;28;20025;-75
2023/01/13 04:47:02;;;;;;;20.00;3.20;;;8.20;99.90;;;;;;5024759;28;20029;-77
2023/01/13 04:49:30;;;;;;;14.33;2.10;;;8.20;99.90;;;;;;5044112;28;20174;-76
2023/01/13 04:51:58;;;;;;;17.03;3.20;;;8.20;99.90;;;;;;5023703;28;20106;-76
2023/01/13 04:54:24;;;;;;;12.33;2.40;;;8.30;99.90;;;;;;5025358;28;20461;-76
2023/01/13 04:56:49;;;;;;;17.27;2.37;;;8.30;99.90;;;;;;5029251;28;20029;-76
2023/01/13 04:59:15;;;;;;;12.30;3.13;;;;;;;;;;5025377;28;20051;-75
2023/01/13 05:01:41;;;;;;;20.30;3.57;;;;;;;;;;5046294;28;20045;-76
2023/01/13 05:04:08;;;;;;;16.33;3.43;;;;;;;;;;5047384;28;20112;-75
2023/01/13 05:06:34;;;;;;;13.93;2.43;;;;;;;;;;5039959;28;20029;-76
2023/01/13 05:09:00;;;;;;;15.87;2.20;;;;;;;;;;5027246;28;20040;-76
2023/01/13 05:17:03;;;;;;;14.03;2.87;;;;;;;;;;5021954;28;20038;-76
2023/01/13 05:19:34;;;;;;;13.20;2.97;;;;;;;;;;5026573;28;20340;-76
2023/01/13 05:27:30;;;;;;;22.60;3.13;;;;;;;;;;5029212;28;20048;-76
2023/01/13 05:29:56;;;;;;;16.50;2.50;;;;;;;;;;5039243;28;20461;-75
2023/01/13 05:32:28;;;;;;;10.73;2.80;;;8.40;99.90;;;;;;5038104;28;20039;-75
2023/01/13 05:34:54;;;;;;;14.83;2.50;;;;;;;;;;5029026;28;20033;-75
2023/01/13 05:37:26;;;;;;;14.63;2.47;;;;;;;;;;5025412;28;20068;-76
2023/01/13 05:45:22;;;;;;;15.77;2.57;;;;;;;;;;5028959;28;20051;-75
2023/01/13 05:47:48;;;;;;;9.03;1.77;;;;;;;;;;5028578;28;20025;-74
2023/01/13 05:50:14;;;;;;;12.93;2.20;;;;;;;;;;5028733;28;20052;-73
2023/01/13 05:52:40;;;;;;;17.77;2.83;;;;;;;;;;5024821;28;20037;-75
2023/01/13 05:55:06;;;;;;;11.47;2.07;;;;;;;;;;5041683;28;20079;-74
2023/01/13 05:57:32;;;;;;;11.17;1.80;;;;;;;;;;5044665;28;20041;-75
2023/01/13 05:59:58;;;;;;;11.70;1.63;;;;;;;;;;5025057;28;20033;-75
2023/01/13 06:02:25;;;;;;;11.27;1.47;;;;;;;;;;5027989;28;20030;-76
2023/01/13 06:04:51;;;;;;;8.37;1.53;;;;;;;;;;5028658;28;20021;-74
2023/01/13 06:07:17;;;;;;;10.10;1.97;;;;;;;;;;5028310;28;20041;-75
2023/01/13 06:09:43;;;;;;;8.63;1.40;;;;;;;;;;5043764;28;20021;-76
2023/01/13 06:12:13;;;;;;;7.07;1.57;;;;;;;;;;5028302;28;20030;-75
2023/01/13 06:14:39;;;;;;;9.60;1.63;;;;;;;;;;5028280;28;20029;-75
2023/01/13 06:17:09;;;;;;;7.60;1.53;;;;;;;;;;5043853;28;20116;-74
2023/01/13 06:19:35;;;;;;;11.33;1.50;;;;;;;;;;5043774;28;20024;-76
2023/01/13 06:22:10;;;;;;;8.07;1.80;;;;;;;;;;5036325;28;20416;-74
2023/01/13 06:24:36;;;;;;;6.43;1.80;;;;;;;;;;5036495;28;20106;-75
2023/01/13 06:27:04;;;;;;;9.80;1.50;;;;;;;;;;5043448;28;20400;-76
2023/01/13 06:29:29;;;;;;;11.60;1.77;;;;;;;;;;5043897;28;20044;-74
2023/01/13 06:31:58;;;;;;;10.53;1.53;;;;;;;;;;5042894;28;20025;-76
2023/01/13 06:34:24;;;;;;;10.03;2.00;;;;;;;;;;5028040;28;20041;-76
2023/01/13 06:36:52;;;;;;;4.17;1.10;;;;;;;;;;5020881;28;20057;-75
2023/01/13 06:39:19;;;;;;;7.20;1.33;;;;;;;;;;5043831;28;20040;-76
2023/01/13 06:44:32;;;;;;;8.70;1.77;;;;;;;;;;5027708;28;20051;-75
2023/01/13 06:46:58;;;;;;;9.33;1.50;;;;;;;;;;5021095;28;20033;-75
2023/01/13 06:49:24;;;;;;;13.53;1.63;;;;;;;;;;5043026;28;20176;-76
2023/01/13 06:51:52;;;;;;;7.47;0.90;;;;;;;;;;5029341;28;20116;-75
2023/01/13 06:54:18;;;;;;;10.17;1.57;;;;;;;;;;5043844;28;20077;-75
2023/01/13 06:56:44;;;;;;;14.90;1.77;;;;;;;;;;5039946;28;20053;-74
2023/01/13 06:59:10;;;;;;;7.13;1.50;;;;;;;;;;5042722;28;20026;-76
2023/01/13 07:01:36;;;;;;;6.77;1.30;;;;;;;;;;5023624;28;20585;-74
2023/01/13 07:04:02;;;;;;;6.33;1.13;;;;;;;;;;5042874;28;20041;-76
2023/01/13 07:06:28;;;;;;;2.57;0.80;;;;;;;;;;5044903;28;20033;-74
2023/01/13 07:08:54;;;;;;;8.60;1.17;;;;;;;;;;5042667;28;20259;-72
2023/01/13 07:11:23;;;;;;;12.47;2.10;;;;;;;;;;5027577;28;20033;-73
2023/01/13 07:16:33;;;;;;;7.70;1.67;;;;;;;;;;5027319;28;20048;-74
2023/01/13 07:18:59;;;;;;;9.33;1.50;;;;;;;;;;5027521;28;20029;-74
2023/01/13 07:21:25;;;;;;;9.47;1.53;;;;;;;;;;5026621;28;20036;-76
2023/01/13 07:23:51;;;;;;;5.60;1.10;;;;;;;;;;5034611;28;20044;-75
2023/01/13 07:26:17;;;;;;;4.93;1.00;;;;;;;;;;5042497;28;20037;-76
2023/01/13 07:28:43;;;;;;;6.53;0.83;;;;;;;;;;5042872;28;20465;-75
2023/01/13 07:31:15;;;;;;;5.53;1.50;;;;;;;;;;5022939;28;20371;-75
2023/01/13 07:33:41;;;;;;;9.00;1.60;;;;;;;;;;5017191;28;20136;-74
2023/01/13 07:36:07;;;;;;;7.23;1.47;;;;;;;;;;5039322;28;20191;-75
2023/01/13 07:38:33;;;;;;;9.33;1.27;;;;;;;;;;5025926;28;20037;-75
2023/01/13 07:43:44;;;;;;;6.73;1.33;;;;;;;;;;5031244;28;20580;-75
2023/01/13 07:46:10;;;;;;;8.17;1.17;;;;;;;;;;5040293;28;20037;-74
2023/01/13 07:48:36;;;;;;;8.13;1.40;;;;;;;;;;5029196;28;20063;-75
2023/01/13 07:51:04;;;;;;;4.13;1.07;;;;;;;;;;5030790;28;20026;-74
2023/01/13 07:53:30;;;;;;;7.47;0.93;;;;;;;;;;5030814;28;20053;-74
2023/01/13 07:55:56;;;;;;;4.50;0.90;;;;;;;;;;5046308;28;20170;-75
2023/01/13 07:58:23;;;;;;;9.67;0.90;;;;;;;;;;5039108;28;20037;-75
2023/01/13 08:00:49;;;;;;;4.93;1.20;;;;;;;;;;5022609;28;20036;-76
2023/01/13 08:03:17;;;;;;;6.30;1.57;;;;;;;;;;5029673;28;20033;-75
2023/01/13 08:05:43;;;;;;;8.23;1.47;;;;;;;;;;5029798;28;20195;-75
2023/01/13 08:08:09;;;;;;;6.50;1.03;;;;;;;;;;5046329;28;20029;-74
2023/01/13 08:10:36;;;;;;;10.77;2.43;;;;;;;;;;5039137;28;20137;-76
2023/01/13 08:13:17;;;;;;;4.97;1.10;;;;;;;;;;5025352;28;20056;-74
2023/01/13 08:15:47;;;;;;;5.80;1.40;;;;;;;;;;5038288;28;20033;-76
2023/01/13 08:18:13;;;;;;;7.83;1.50;;;;;;;;;;5029802;28;20033;-75
2023/01/13 08:20:39;;;;;;;8.30;1.30;;;;;;;;;;5030162;28;20115;-75
2023/01/13 08:23:05;;;;;;;9.00;1.73;;;8.20;99.90;;;;;;5045766;28;21323;-74
2023/01/13 08:25:31;;;;;;;9.80;1.40;;;;;;;;;;5029992;28;20076;-76
2023/01/13 08:28:01;;;;;;;11.67;1.33;;;;;;;;;;5029215;28;20026;-75
2023/01/13 08:30:27;;;;;;;9.60;1.30;;;;;;;;;;5039274;28;20037;-75
2023/01/13 08:32:53;;;;;;;13.57;3.60;;;;;;;;;;5025295;28;20038;-76
2023/01/13 08:35:19;;;;;;;10.57;1.93;;;;;;;;;;5044899;28;20069;-75
2023/01/13 08:37:47;;;;;;;12.03;1.90;;;;;;;;;;5024198;28;20126;-74
2023/01/13 08:40:14;;;;;;;12.50;2.33;;;;;;;;;;5045163;28;20033;-74
2023/01/13 08:42:40;;;;;;;14.70;1.93;;;;;;;;;;5022254;28;20057;-73
2023/01/13 08:45:08;;;;;;;8.93;1.87;;;;;;;;;;5033178;28;20068;-75
2023/01/13 08:47:34;;;;;;;10.57;2.67;;;;;;;;;;5031146;28;20029;-74
2023/01/13 08:50:03;;;;;;;13.87;2.53;;;;;;;;;;5039360;28;20040;-75
2023/01/13 08:52:29;;;;;;;16.37;2.20;;;;;;;;;;5045169;28;20021;-75
2023/01/13 08:54:55;;;;;;;18.60;3.03;;;;;;;;;;5039391;28;20040;-75
2023/01/13 08:57:21;;;;;;;12.63;2.07;;;;;;;;;;5029484;28;20120;-76
2023/01/13 08:59:47;;;;;;;8.90;1.73;;;;;;;;;;5041009;28;20029;-74
2023/01/13 09:02:14;;;;;;;18.37;2.57;;;;;;;;;;5021318;28;20131;-75
2023/01/13 09:04:40;;;;;;;13.77;2.67;;;;;;;;;;5030015;28;20034;-74
2023/01/13 09:07:08;;;;;;;16.67;2.67;;;;;;;;;;5040707;28;20033;-74
2023/01/13 09:09:34;;;;;;;20.50;2.83;;;;;;;;;;5045697;28;20172;-75
2023/01/13 09:14:45;;;;;;;17.37;2.57;;;;;;;;;;5030480;28;20064;-76
2023/01/13 09:17:13;;;;;;;13.73;3.10;;;;;;;;;;5022791;28;20021;-76
2023/01/13 09:19:40;;;;;;;17.93;3.30;;;;;;;;;;5044395;28;21689;-76
2023/01/13 09:22:06;;;;;;;22.10;2.30;;;;;;;;;;5020385;28;20351;-76
2023/01/13 09:24:32;;;;;;;11.57;1.87;;;;;;;;;;5043773;28;20038;-76
2023/01/13 09:26:58;;;;;;;15.60;3.07;;;;;;;;;;5040303;28;20030;-76
2023/01/13 09:29:24;;;;;;;17.03;3.13;;;;;;;;;;5027728;28;20059;-75
2023/01/13 09:31:50;;;;;;;17.77;3.33;;;;;;;;;;5030717;28;20104;-76
2023/01/13 09:37:02;;;;;;;17.50;3.57;;;;;;;;;;5030603;28;20110;-77
2023/01/13 09:39:28;;;;;;;19.97;3.37;;;;;;;;;;5022729;28;20029;-76
2023/01/13 09:45:00;;;;;;;23.40;4.60;;;;;;;;;;5029692;28;20049;-75
2023/01/13 09:47:45;;;;;;;12.80;2.70;;;;;;;;;;5045547;28;20109;-77
2023/01/13 09:50:14;;;;;;;20.03;2.80;;;;;;;;;;5023812;28;20032;-78
2023/01/13 09:52:43;;;;;;;19.33;3.33;;;;;;;;;;5046960;28;20083;-75
2023/01/13 09:55:17;;;;;;;17.90;2.67;;;;;;;;;;5046316;28;20116;-77
2023/01/13 09:57:43;;;;;;;15.90;2.70;;;;;;;;;;5044461;28;20120;-76
2023/01/13 10:00:38;;;;;;;12.53;2.33;;;;;;;;;;5032584;28;20108;-77
2023/01/13 10:03:22;;;;;;;19.27;2.53;;;;;;;;;;5028908;28;20123;-75
2023/01/13 10:06:06;;;;;;;21.00;2.60;;;;;;;;;;5042522;28;20036;-77
2023/01/13 10:08:34;;;;;;;14.27;2.20;;;;;;;;;;5046081;28;20044;-77
2023/01/13 10:13:13;;;;;;;21.57;3.60;;;;;;;;;;5046264;28;20025;-78
2023/01/13 10:13:50;;;;;;;20.17;3.43;;;;;;;;;;5030514;28;20760;-78
2023/01/13 10:16:23;;;;;;;23.97;3.47;;;;;;;;;;5047789;28;20029;-77
2023/01/13 10:18:56;;;;;;;20.63;3.40;;;;;;;;;;5029779;28;20052;-77
2023/01/13 10:21:25;;;;;;;19.77;3.30;;;;;;;;;;5046614;28;20044;-76
2023/01/13 10:23:51;;;;;;;15.83;2.93;;;;;;;;;;5038151;28;20033;-77
2023/01/13 10:26:27;;;;;;;17.77;3.10;;;;;;;;;;5025016;28;20033;-75
2023/01/13 10:28:57;;;;;;;14.73;3.07;;;;;;;;;;5023715;28;20402;-75
2023/01/13 10:31:24;;;;;;;20.57;3.17;;;;;;;;;;5023714;28;20033;-77
2023/01/13 10:34:00;;;;;;;18.80;3.70;;;;;;;;;;5046910;28;20060;-75
2023/01/13 10:36:26;;;;;;;15.53;2.90;;;;;;;;;;5030388;28;20025;-77
2023/01/13 10:38:52;;;;;;;18.23;3.50;;;;;;;;;;5032335;28;20030;-78
2023/01/13 10:41:20;;;;;;;22.47;3.60;;;;;;;;;;5030586;28;20095;-77
2023/01/13 10:43:52;;;;;;;20.13;3.30;;;;;;;;;;5024615;28;20037;-77
2023/01/13 10:46:19;;;;;;;17.73;3.40;;;;;;;;;;5029096;28;20029;-77
2023/01/13 10:48:51;;;;;;;23.40;3.40;;;;;;;;;;5039573;28;20117;-75
2023/01/13 10:51:36;;;;;;;21.75;3.67;;;;;;;;;;5044434;28;20109;-77
2023/01/13 10:54:11;;;;;;;24.47;3.77;;;;;;;;;;5045848;28;20022;-75
2023/01/13 10:56:38;;;;;;;23.03;4.17;;;;;;;;;;5044019;28;20105;-76
2023/01/13 10:59:21;;;;;;;13.80;2.57;;;;;;;;;;5028709;28;20033;-76
2023/01/13 11:01:59;;;;;;;19.45;2.83;;;;;;;;;;5045478;28;20030;-75
2023/01/13 11:04:35;;;;;;;19.47;3.30;;;;;;;;;;5028497;28;20033;-76
2023/01/13 11:07:02;;;;;;;17.37;2.60;;;;;;;;;;5022726;28;20026;-76
2023/01/13 11:09:29;;;;;;;13.77;3.00;;;;;;;;;;5041346;28;20116;-75
2023/01/13 11:11:56;;;;;;;26.37;3.93;;;;;;;;;;5048150;28;20032;-76
2023/01/13 11:14:32;;;;;;;21.00;3.23;;;;;;;;;;5035419;28;20025;-77
2023/01/13 11:17:01;;;;;;;22.33;3.37;;;;;;;;;;5047584;28;20116;-76
2023/01/13 11:19:28;;;;;;;17.87;3.80;;;;;;;;;;5050075;28;20021;-76
2023/01/13 11:22:03;;;;;;;21.00;3.13;;;;;;;;;;5027494;28;20029;-76
2023/01/13 11:24:36;;;;;;;22.17;3.30;;;;;;;;;;5026856;28;20029;-76
2023/01/13 11:27:13;;;;;;;18.88;3.35;;;;;;;;;;5048605;28;20119;-75
2023/01/13 11:29:48;;;;;;;23.40;3.30;;;;;;;;;;5027035;28;20029;-76
2023/01/13 11:32:17;;;;;;;13.77;2.40;;;;;;;;;;5034216;28;20029;-75
2023/01/13 11:34:44;;;;;;;16.47;2.83;;;;;;;;;;5048095;28;20835;-75
2023/01/13 11:37:30;;;;;;;19.10;4.10;;;;;;;;;;5051585;28;20457;-76
2023/01/13 11:40:00;;;;;;;17.60;3.10;;;;;;;;;;5033282;28;20022;-77
2023/01/13 11:42:26;;;;;;;17.60;3.20;;;;;;;;;;5048616;28;20029;-77
2023/01/13 11:44:55;;;;;;;22.53;2.27;;;;;;;;;;5041896;28;20026;-78
2023/01/13 11:47:25;;;;;;;24.07;3.13;;;;;;;;;;5028596;28;20025;-78
2023/01/13 11:49:51;;;;;;;19.33;2.80;;;;;;;;;;5042151;28;20437;-78
2023/01/13 11:52:33;;;;;;;15.23;3.23;;;;;;;;;;5030023;28;20037;-77
2023/01/13 11:55:15;;;;;;;16.33;3.97;;;;;;;;;;5027618;28;20033;-78
2023/01/13 11:57:49;;;;;;;15.48;2.80;;;;;;;;;;5027757;28;20120;-77
2023/01/13 12:00:34;;;;;;;18.03;3.00;;;;;;;;;;5032623;28;20442;-76
2023/01/13 12:03:00;;;;;;;19.90;3.90;;;;;;;;;;5025446;28;20171;-76
2023/01/13 12:05:58;;;;;;;23.40;3.30;;;;;;;;;;5048772;28;20124;-76
2023/01/13 12:08:36;;;;;;;13.07;2.57;;;;;;;;;;5047387;28;20040;-75
2023/01/13 12:11:22;;;;;;;14.90;2.73;;;10.50;99.90;;;;;;5043347;28;20132;-77
2023/01/13 12:13:51;;;;;;;12.80;2.73;;;;;;;;;;5042538;28;20053;-77
2023/01/13 12:16:26;;;;;;;11.07;2.60;;;;;;;;;;5047412;28;20061;-78
2023/01/13 12:18:58;;;;;;;21.07;3.30;;;;;;;;;;5026876;28;20029;-77
2023/01/13 12:21:51;;;;;;;12.25;2.42;;;;;;;;;;5043216;28;20116;-77
2023/01/13 12:24:21;;;;;;;19.00;2.45;;;;;;;;;;5036058;28;20045;-77
2023/01/13 12:27:03;;;;;;;17.87;3.13;;;;;;;;;;5024526;28;20088;-77
2023/01/13 12:29:36;;;;;;;14.00;2.83;;;;;;;;;;5048562;28;20068;-76
2023/01/13 12:32:13;;;;;;;15.67;2.10;;;;;;;;;;5034334;28;20080;-79
2023/01/13 12:35:04;;;;;;;19.10;2.87;;;10.30;99.90;;;;;;5027885;28;20048;-78
2023/01/13 12:37:30;;;;;;;10.17;2.17;;;;;;;;;;5031257;28;20029;-77
2023/01/13 12:40:15;;;;;;;11.90;2.73;;;;;;;;;;5043697;28;20106;-78
2023/01/13 12:45:37;;;;;;;15.37;2.73;;;;;;;;;;5030944;28;20076;-75
2023/01/13 12:48:04;;;;;;;10.43;2.23;;;;;;;;;;5045998;28;20057;-77
2023/01/13 12:50:32;;;;;;;13.43;2.60;;;;;;;;;;5041248;28;20029;-77
2023/01/13 12:53:17;;;;;;;16.37;3.87;;;;;;;;;;5046741;28;20033;-78
2023/01/13 12:55:43;;;;;;;18.00;3.20;;;;;;;;;;5045275;28;20038;-77
2023/01/13 12:58:09;;;;;;;15.67;3.23;;;;;;;;;;5028887;28;20039;-76
2023/01/13 13:00:37;;;;;;;15.47;2.87;;;;;;;;;;5030916;28;20458;-78
2023/01/13 13:03:15;;;;;;;15.83;3.07;;;;;;;;;;5028990;28;20040;-79
2023/01/13 13:05:43;;;;;;;24.30;3.53;;;;;;;;;;5030909;28;20033;-77
2023/01/13 13:08:28;;;;;;;14.97;2.70;;;;;;;;;;5029797;28;20034;-76
2023/01/13 13:13:16;;;;;;;14.07;2.60;;;;;;;;;;5028648;28;20473;-78
2023/01/13 13:14:03;;;;;;;23.37;2.90;;;;;;;;;;5031785;28;20045;-75
2023/01/13 13:16:29;;;;;;;19.93;3.27;;;;;;;;;;5025628;28;20186;-77
2023/01/13 13:19:14;;;;;;;18.47;3.63;;;;;;;;;;5047749;28;20976;-78
2023/01/13 13:22:13;;;;;;;18.33;4.30;;;;;;;;;;5049535;28;20112;-79
2023/01/13 13:24:48;;;;;;;12.93;2.43;;;;;;;;;;5029833;28;20060;-77
2023/01/13 13:27:33;;;;;;;14.53;2.50;;;;;;;;;;5042497;28;20029;-78
2023/01/13 13:30:09;;;;;;;16.67;3.20;;;;;;;;;;5048036;28;20033;-77
2023/01/13 13:32:44;;;;;;;14.17;2.30;;;;;;;;;;5029117;28;20031;-78
2023/01/13 13:35:19;;;;;;;16.93;2.77;;;;;;;;;;5025695;28;20026;-76
2023/01/13 13:49:07;;;;;;;12.23;2.33;;;;;;;;;;5030191;28;20052;-77
2023/01/13 13:51:37;;;;;;;10.77;2.63;;;;;;;;;;5025539;28;20025;-78
2023/01/13 13:54:04;;;;;;;8.47;1.60;;;;;;;;;;5047172;28;20049;-77
2023/01/13 13:56:32;;;;;;;10.10;2.93;;;;;;;;;;5023551;28;20064;-78
2023/01/13 13:59:00;;;;;;;15.47;2.03;;;;;;;;;;5048870;28;20112;-78
2023/01/13 14:01:28;;;;;;;11.83;2.27;;;;;;;;;;5051414;28;20087;-78
2023/01/13 14:04:12;;;;;;;19.67;2.90;;;;;;;;;;5026658;28;20087;-77
2023/01/13 14:06:50;;;;;;;14.63;2.93;;;;;;;;;;5027568;28;20059;-78
2023/01/13 14:09:17;;;;;;;22.47;2.80;;;;;;;;;;5024660;28;20033;-78
2023/01/13 14:11:53;;;;;;;10.97;2.73;;;;;;;;;;5050140;28;20030;-79
2023/01/13 14:14:20;;;;;;;21.53;2.60;;;;;;;;;;5023883;28;20069;-74
2023/01/13 14:16:46;;;;;;;22.23;2.83;;;;;;;;;;5024482;28;20025;-78
2023/01/13 14:19:44;;;;;;;15.00;3.20;;;;;;;;;;5047319;28;20112;-79
2023/01/13 14:22:16;;;;;;;13.00;2.87;;;;;;;;;;5031916;28;21792;-78
2023/01/13 14:24:54;;;;;;;19.58;3.92;;;;;;;;;;5046219;28;20442;-77
2023/01/13 14:27:22;;;;;;;13.10;2.00;;;;;;;;;;5041568;28;20039;-78
2023/01/13 14:29:48;;;;;;;22.50;3.23;;;;;;;;;;5031761;28;20116;-78
2023/01/13 14:32:17;;;;;;;11.30;2.10;;;;;;;;;;5027347;28;20040;-78
2023/01/13 14:34:44;;;;;;;8.60;2.10;;;;;;;;;;5040563;28;20124;-77
2023/01/13 14:37:23;;;;;;;10.80;2.20;;;;;;;;;;5048898;28;20022;-78
2023/01/13 14:39:49;;;;;;;12.00;2.40;;;;;;;;;;5026991;28;20061;-77
2023/01/13 14:42:16;;;;;;;15.07;2.60;;;;;;;;;;5031364;28;20025;-75
2023/01/13 14:44:44;;;;;;;13.40;2.00;;;;;;;;;;5023429;28;20044;-76
2023/01/13 14:47:17;;;;;;;14.33;1.90;;;;;;;;;;5030710;28;20025;-76
2023/01/13 14:49:59;;;;;;;10.25;1.70;;;;;;;;;;5025136;28;20462;-76
2023/01/13 14:52:26;;;;;;;;;;;;;;;;;;5030676;28;20434;-78
2023/01/13 14:55:13;;;;;;;14.97;2.73;;;;;;;;;;5027718;28;19954;-75
2023/01/13 14:57:40;;;;;;;20.70;3.97;;;;;;;;;;5029051;28;20061;-75
2023/01/13 15:00:15;;;;;;;16.10;2.80;;;;;;;;;;5044744;28;20722;-78
2023/01/13 15:02:52;;;;;;;21.00;3.73;;;;;;;;;;5029449;28;20104;-76
2023/01/13 15:05:18;;;;;;;12.83;2.33;;;;;;;;;;5028786;28;20120;-77
2023/01/13 15:07:53;;;;;;;20.53;3.37;;;;;;;;;;5027986;28;20104;-75
2023/01/13 15:10:20;;;;;;;18.30;3.73;;;;;;;;;;5028791;28;20029;-79
2023/01/13 15:12:49;;;;;;;18.93;3.17;;;;;;;;;;5026748;28;20025;-78
2023/01/13 15:15:24;;;;;;;16.57;2.90;;;;;;;;;;5040511;28;20036;-76
2023/01/13 15:17:50;;;;;;;24.97;3.47;;;;;;;;;;5046576;28;20033;-78
2023/01/13 15:20:18;;;;;;;18.93;3.20;;;;;;;;;;5028880;28;20038;-77
2023/01/13 15:22:44;;;;;;;15.97;2.97;;;;;;;;;;5045055;28;20041;-75
2023/01/13 15:25:10;;;;;;;21.00;3.77;;;;;;;;;;5045672;28;20044;-78
2023/01/13 15:27:39;;;;;;;21.13;2.83;;;;;;;;;;5037603;28;20135;-77
2023/01/13 15:30:25;;;;;;;23.43;3.33;;;;;;;;;;5043996;28;20430;-75
2023/01/13 15:32:55;;;;;;;21.10;2.90;;;;;;;;;;5044079;28;20025;-77
2023/01/13 15:35:22;;;;;;;27.90;3.70;;;;;;;;;;5041653;28;20033;-77
2023/01/13 15:37:49;;;;;;;13.07;3.03;;;;;;;;;;5026660;28;20037;-78
2023/01/13 15:40:25;;;;;;;13.40;2.70;;;;;;;;;;5046815;28;20040;-77
2023/01/13 15:48:22;;;;;;;18.43;3.53;;;;;;;;;;5030846;28;20099;-77
2023/01/13 15:50:48;;;;;;;17.73;2.53;;;;;;;;;;5030562;28;20052;-77